createdAt,value
2022-12-19T00:01:37.488Z,32.83
2022-12-19T00:04:10.933Z,40.00
2022-12-19T00:06:43.594Z,38.03
2022-12-19T00:09:12.434Z,36.22
2022-12-19T00:11:40.189Z,39.00
2022-12-19T00:14:07.449Z,35.97
2022-12-19T00:16:34.125Z,37.47
2022-12-19T00:19:01.552Z,37.30
2022-12-19T00:21:30.907Z,34.58
2022-12-19T00:24:01.692Z,34.42
2022-12-19T00:26:37.017Z,34.63
2022-12-19T00:29:11.176Z,35.80
2022-12-19T00:31:42.642Z,40.05
2022-12-19T00:34:09.684Z,36.30
2022-12-19T00:36:36.533Z,35.58
2022-12-19T00:39:08.018Z,33.35
2022-12-19T00:41:37.042Z,37.20
2022-12-19T00:44:07.108Z,34.78
2022-12-19T00:46:34.814Z,34.85
2022-12-19T00:49:02.431Z,33.53
2022-12-19T00:51:32.077Z,31.13
2022-12-19T00:53:59.146Z,32.25
2022-12-19T00:56:28.429Z,31.67
2022-12-19T00:58:55.526Z,29.45
2022-12-19T01:01:24.472Z,32.13
2022-12-19T01:04:26.452Z,32.72
2022-12-19T01:06:38.476Z,32.45
2022-12-19T01:09:05.693Z,35.25
2022-12-19T01:11:55.600Z,28.77
2022-12-19T01:14:23.370Z,33.22
2022-12-19T01:16:50.904Z,32.92
2022-12-19T01:19:19.377Z,32.42
2022-12-19T01:21:46.162Z,32.65
2022-12-19T01:24:13.760Z,31.10
2022-12-19T01:26:45.019Z,32.20
2022-12-19T01:29:12.157Z,31.10
2022-12-19T01:31:41.876Z,31.88
2022-12-19T01:34:08.832Z,28.77
2022-12-19T01:36:39.577Z,31.48
2022-12-19T01:39:06.795Z,30.02
2022-12-19T01:41:33.425Z,27.50
2022-12-19T01:44:09.476Z,33.08
2022-12-19T01:46:45.940Z,29.08
2022-12-19T01:49:32.422Z,29.70
2022-12-19T01:52:01.344Z,29.80
2022-12-19T01:54:47.969Z,28.13
2022-12-19T01:57:18.337Z,27.05
2022-12-19T01:59:51.310Z,26.67
2022-12-19T02:02:24.611Z,26.17
2022-12-19T02:04:57.465Z,32.13
2022-12-19T02:07:25.221Z,29.10
2022-12-19T02:09:57.210Z,29.25
2022-12-19T02:12:35.374Z,28.35
2022-12-19T02:15:03.860Z,26.80
2022-12-19T02:17:57.427Z,29.65
2022-12-19T02:20:36.527Z,25.80
2022-12-19T02:23:12.305Z,26.92
2022-12-19T02:26:07.574Z,28.45
2022-12-19T02:29:05.206Z,28.60
2022-12-19T02:31:46.206Z,29.63
2022-12-19T02:34:31.331Z,26.10
2022-12-19T02:37:08.053Z,26.35
2022-12-19T02:39:46.683Z,23.30
2022-12-19T02:42:22.585Z,26.52
2022-12-19T02:44:51.992Z,26.85
2022-12-19T02:47:21.414Z,26.25
2022-12-19T02:49:48.948Z,27.30
2022-12-19T02:52:19.187Z,25.35
2022-12-19T02:54:52.375Z,28.38
2022-12-19T02:57:51.838Z,27.05
2022-12-19T03:00:21.918Z,26.02
2022-12-19T03:03:21.151Z,28.05
2022-12-19T03:05:57.001Z,28.60
2022-12-19T03:08:37.734Z,26.08
2022-12-19T03:11:10.318Z,32.28
2022-12-19T03:13:42.694Z,33.42
2022-12-19T03:16:10.489Z,25.92
2022-12-19T03:18:38.069Z,26.42
2022-12-19T03:21:16.851Z,27.90
2022-12-19T03:23:47.414Z,29.70
2022-12-19T03:26:18.220Z,31.30
2022-12-19T03:29:11.117Z,28.65
2022-12-19T03:31:38.797Z,28.42
2022-12-19T03:34:10.762Z,25.75
2022-12-19T03:36:44.202Z,30.33
2022-12-19T03:39:12.776Z,32.80
2022-12-19T03:41:58.447Z,30.08
2022-12-19T03:44:27.252Z,30.55
2022-12-19T03:47:20.567Z,31.38
2022-12-19T03:49:47.913Z,34.17
2022-12-19T03:52:29.154Z,28.50
2022-12-19T03:55:17.474Z,29.58
2022-12-19T03:57:49.833Z,31.40
2022-12-19T04:00:17.636Z,32.42
2022-12-19T04:02:50.159Z,33.55
2022-12-19T04:05:26.074Z,31.75
2022-12-19T04:07:55.647Z,29.35
2022-12-19T04:10:25.080Z,30.10
2022-12-19T04:12:56.202Z,31.98
2022-12-19T04:15:32.179Z,31.30
2022-12-19T04:18:00.035Z,30.92
2022-12-19T04:20:27.822Z,32.40
2022-12-19T04:23:00.238Z,29.05
2022-12-19T04:25:35.975Z,30.95
2022-12-19T04:28:07.303Z,34.17
2022-12-19T04:30:38.523Z,29.23
2022-12-19T04:33:05.230Z,35.45
2022-12-19T04:35:37.920Z,31.48
2022-12-19T04:38:04.846Z,33.55
2022-12-19T04:40:40.670Z,30.88
2022-12-19T04:43:08.559Z,35.22
2022-12-19T04:45:35.341Z,34.40
2022-12-19T04:48:03.288Z,32.08
2022-12-19T04:50:30.137Z,33.70
2022-12-19T04:52:58.093Z,30.98
2022-12-19T04:55:24.854Z,33.35
2022-12-19T04:57:51.905Z,30.52
2022-12-19T05:00:18.616Z,34.17
2022-12-19T05:02:45.827Z,34.60
2022-12-19T05:05:12.585Z,33.55
2022-12-19T05:07:40.707Z,32.55
2022-12-19T05:10:08.041Z,32.65
2022-12-19T05:12:35.014Z,33.03
2022-12-19T05:15:01.726Z,32.25
2022-12-19T05:17:28.360Z,35.58
2022-12-19T05:19:55.243Z,35.03
2022-12-19T05:22:22.058Z,35.75
2022-12-19T05:24:48.719Z,39.38
2022-12-19T05:27:15.363Z,37.05
2022-12-19T05:29:42.058Z,34.35
2022-12-19T05:32:08.834Z,38.47
2022-12-19T05:34:35.573Z,35.33
2022-12-19T05:37:03.735Z,37.70
2022-12-19T05:39:30.664Z,35.30
2022-12-19T05:41:57.631Z,38.55
2022-12-19T05:44:25.301Z,32.92
2022-12-19T05:46:52.379Z,36.15
2022-12-19T05:49:19.438Z,48.10
2022-12-19T05:51:46.244Z,45.20
2022-12-19T05:54:13.063Z,36.40
2022-12-19T05:56:39.721Z,36.35
2022-12-19T05:59:09.528Z,33.33
2022-12-19T06:01:36.285Z,37.78
2022-12-19T06:04:04.371Z,45.03
2022-12-19T06:06:31.047Z,37.22
2022-12-19T06:09:03.929Z,45.72
2022-12-19T06:11:30.625Z,36.47
2022-12-19T06:13:57.338Z,37.28
2022-12-19T06:16:24.351Z,34.50
2022-12-19T06:18:51.560Z,34.13
2022-12-19T06:21:20.507Z,31.98
2022-12-19T06:23:47.370Z,33.78
2022-12-19T06:26:19.388Z,34.45
2022-12-19T06:28:51.712Z,34.50
2022-12-19T06:31:19.845Z,33.33
2022-12-19T06:33:46.494Z,30.15
2022-12-19T06:36:24.660Z,32.15
2022-12-19T06:38:55.969Z,39.08
2022-12-19T06:41:41.340Z,33.85
2022-12-19T06:44:12.159Z,34.00
2022-12-19T06:46:39.544Z,34.38
2022-12-19T06:49:06.986Z,31.92
2022-12-19T06:51:33.968Z,31.08
2022-12-19T06:54:00.650Z,33.72
2022-12-19T06:56:37.457Z,39.72
2022-12-19T06:59:05.221Z,35.35
2022-12-19T07:01:46.918Z,35.30
2022-12-19T07:04:17.076Z,32.58
2022-12-19T07:06:48.896Z,33.50
2022-12-19T07:09:16.728Z,31.85
2022-12-19T07:11:44.221Z,35.08
2022-12-19T07:14:11.243Z,33.65
2022-12-19T07:16:38.275Z,33.95
2022-12-19T07:19:06.332Z,34.72
2022-12-19T07:21:36.634Z,33.58
2022-12-19T07:24:03.966Z,32.72
2022-12-19T07:26:32.014Z,31.02
2022-12-19T07:28:59.223Z,32.22
2022-12-19T07:31:26.411Z,32.60
2022-12-19T07:33:53.360Z,35.13
2022-12-19T07:36:20.044Z,35.05
2022-12-19T07:38:46.832Z,33.28
2022-12-19T07:41:17.109Z,35.17
2022-12-19T07:43:43.774Z,31.45
2022-12-19T07:46:10.587Z,32.13
2022-12-19T07:48:38.512Z,30.05
2022-12-19T07:51:05.508Z,26.35
2022-12-19T07:53:32.469Z,33.03
2022-12-19T07:55:59.403Z,29.95
2022-12-19T07:58:26.223Z,29.98
2022-12-19T08:00:57.220Z,27.65
2022-12-19T08:03:24.668Z,29.38
2022-12-19T08:05:51.447Z,30.02
2022-12-19T08:08:18.318Z,29.92
2022-12-19T08:10:45.128Z,30.63
2022-12-19T08:13:12.011Z,27.42
2022-12-19T08:15:38.668Z,28.20
2022-12-19T08:18:06.428Z,25.77
2022-12-19T08:20:33.043Z,26.45
2022-12-19T08:23:01.369Z,27.13
2022-12-19T08:25:28.398Z,31.30
2022-12-19T08:27:55.728Z,31.42
2022-12-19T08:30:22.996Z,26.67
2022-12-19T08:32:50.935Z,28.08
2022-12-19T08:35:17.881Z,28.27
2022-12-19T08:37:44.793Z,27.48
2022-12-19T08:40:12.809Z,27.73
2022-12-19T08:42:39.980Z,29.00
2022-12-19T08:45:07.952Z,29.08
2022-12-19T08:47:34.920Z,31.45
2022-12-19T08:50:01.592Z,27.73
2022-12-19T08:52:28.229Z,30.35
2022-12-19T08:54:55.015Z,28.92
2022-12-19T08:57:21.763Z,36.15
2022-12-19T08:59:48.479Z,29.90
2022-12-19T09:02:16.693Z,32.13
2022-12-19T09:05:57.446Z,29.65
2022-12-19T09:07:31.022Z,27.38
2022-12-19T09:10:00.808Z,25.58
2022-12-19T09:12:27.580Z,27.20
2022-12-19T09:14:54.392Z,30.33
2022-12-19T09:17:21.183Z,26.92
2022-12-19T09:19:48.517Z,28.08
2022-12-19T09:22:15.645Z,25.27
2022-12-19T09:24:42.391Z,28.40
2022-12-19T09:27:09.352Z,23.35
2022-12-19T09:29:36.086Z,25.38
2022-12-19T09:32:02.925Z,23.92
2022-12-19T09:34:37.073Z,26.05
2022-12-19T09:37:09.253Z,27.17
2022-12-19T09:39:42.349Z,25.42
2022-12-19T09:42:23.240Z,23.95
2022-12-19T09:44:57.044Z,27.10
2022-12-19T09:47:25.610Z,26.15
2022-12-19T09:49:52.563Z,25.15
2022-12-19T09:52:25.820Z,24.23
2022-12-19T09:55:17.411Z,25.10
2022-12-19T09:58:06.453Z,25.23
2022-12-19T10:00:39.717Z,23.73
2022-12-19T10:03:17.375Z,25.67
2022-12-19T10:06:35.729Z,23.50
2022-12-19T10:09:20.145Z,23.40
2022-12-19T10:12:43.241Z,24.75
2022-12-19T10:14:33.158Z,31.88
2022-12-19T10:17:25.437Z,22.85
2022-12-19T10:19:52.376Z,24.77
2022-12-19T10:22:32.869Z,27.30
2022-12-19T10:25:12.203Z,24.98
2022-12-19T10:27:58.629Z,26.10
2022-12-19T10:30:26.040Z,25.77
2022-12-19T10:33:22.797Z,23.95
2022-12-19T10:35:54.900Z,28.85
2022-12-19T10:38:29.428Z,23.92
2022-12-19T10:41:39.289Z,24.42
2022-12-19T10:44:11.274Z,21.83
2022-12-19T10:46:49.374Z,25.55
2022-12-19T10:49:25.708Z,23.17
2022-12-19T10:52:08.054Z,24.20
2022-12-19T10:54:37.908Z,24.40
2022-12-19T10:57:22.908Z,24.38
2022-12-19T10:59:57.581Z,23.27
2022-12-19T11:02:39.646Z,24.48
2022-12-19T11:05:20.332Z,27.05
2022-12-19T11:08:06.767Z,22.77
2022-12-19T11:12:22.299Z,30.63
2022-12-19T11:19:13.241Z,24.92
2022-12-19T11:20:33.785Z,24.00
2022-12-19T11:29:19.403Z,22.63
2022-12-19T11:29:54.355Z,27.77
2022-12-19T11:30:39.633Z,25.63
2022-12-19T11:30:41.543Z,27.67
2022-12-19T11:34:21.488Z,28.65
2022-12-19T11:36:52.918Z,25.98
2022-12-19T11:39:33.990Z,26.10
2022-12-19T11:42:10.330Z,29.05
2022-12-19T11:45:01.615Z,25.65
2022-12-19T11:47:42.554Z,27.50
2022-12-19T11:50:15.588Z,28.65
2022-12-19T11:53:16.599Z,25.65
2022-12-19T11:55:46.675Z,29.33
2022-12-19T11:58:13.762Z,31.25
2022-12-19T12:00:47.531Z,27.63
2022-12-19T12:03:20.374Z,29.80
2022-12-19T12:05:48.269Z,29.65
2022-12-19T12:10:06.420Z,27.88
2022-12-19T12:16:48.388Z,28.83
2022-12-19T12:23:14.929Z,28.85
2022-12-19T12:29:41.729Z,25.30
2022-12-19T12:31:09.073Z,31.05
2022-12-19T12:31:51.389Z,29.98
2022-12-19T12:31:56.213Z,28.02
2022-12-19T12:32:04.666Z,30.77
2022-12-19T12:35:30.668Z,32.00
2022-12-19T12:39:06.897Z,29.52
2022-12-19T12:42:03.228Z,28.35
2022-12-19T12:44:45.907Z,33.40
2022-12-19T12:47:20.767Z,29.83
2022-12-19T12:49:51.702Z,28.02
2022-12-19T12:52:21.203Z,29.63
2022-12-19T12:54:48.850Z,31.23
2022-12-19T12:57:30.059Z,33.67
2022-12-19T13:00:23.765Z,32.75
2022-12-19T13:02:54.462Z,35.05
2022-12-19T13:05:40.848Z,33.85
2022-12-19T13:08:36.888Z,33.08
2022-12-19T13:11:06.973Z,32.55
2022-12-19T13:13:53.624Z,31.63
2022-12-19T13:16:43.274Z,31.23
2022-12-19T13:19:40.838Z,33.63
2022-12-19T13:22:07.720Z,31.00
2022-12-19T13:24:56.334Z,33.65
2022-12-19T13:27:24.080Z,33.63
2022-12-19T13:29:59.573Z,34.70
2022-12-19T13:32:34.490Z,37.58
2022-12-19T13:35:40.155Z,34.45
2022-12-19T13:39:48.863Z,34.20
2022-12-19T13:41:44.682Z,32.65
2022-12-19T13:44:12.286Z,35.65
2022-12-19T13:46:45.990Z,33.60
2022-12-19T13:49:20.329Z,34.30
2022-12-19T13:51:52.166Z,35.42
2022-12-19T13:54:33.065Z,31.83
2022-12-19T13:57:02.619Z,35.55
2022-12-19T13:59:38.468Z,33.80
2022-12-19T14:02:19.172Z,35.72
2022-12-19T14:04:46.054Z,33.47
2022-12-19T14:07:39.708Z,34.78
2022-12-19T14:11:30.039Z,34.35
2022-12-19T14:13:52.832Z,36.20
2022-12-19T14:16:16.994Z,36.40
2022-12-19T14:18:49.758Z,36.30
2022-12-19T14:22:11.644Z,33.00
2022-12-19T14:24:22.920Z,37.03
2022-12-19T14:28:25.908Z,38.88
2022-12-19T14:30:27.367Z,36.90
2022-12-19T14:33:45.282Z,39.22
2022-12-19T14:36:11.521Z,36.15
2022-12-19T14:39:23.114Z,35.13
2022-12-19T14:41:39.737Z,42.00
2022-12-19T14:52:51.828Z,42.38
2022-12-19T14:54:06.702Z,38.47
2022-12-19T14:54:11.538Z,34.65
2022-12-19T14:54:34.885Z,35.75
2022-12-19T14:56:12.933Z,40.58
2022-12-19T14:58:54.513Z,39.60
2022-12-19T15:01:26.168Z,36.67
2022-12-19T15:04:50.875Z,39.92
2022-12-19T15:07:07.333Z,55.72
2022-12-19T15:11:04.348Z,41.67
2022-12-19T15:14:46.477Z,43.78
2022-12-19T15:15:48.719Z,45.45
2022-12-19T15:18:20.703Z,44.22
2022-12-19T15:20:47.592Z,48.45
2022-12-19T15:23:21.504Z,47.70
2022-12-19T15:26:06.554Z,46.88
2022-12-19T15:28:50.029Z,45.58
2022-12-19T15:31:41.627Z,40.97
2022-12-19T15:34:39.184Z,46.53
2022-12-19T15:37:17.197Z,43.85
2022-12-19T15:39:44.785Z,45.78
2022-12-19T15:42:23.439Z,43.67
2022-12-19T15:44:54.132Z,43.47
2022-12-19T15:47:35.294Z,47.28
2022-12-19T15:50:09.530Z,44.25
2022-12-19T15:52:37.254Z,41.20
2022-12-19T15:55:04.997Z,46.72
2022-12-19T15:57:38.838Z,46.67
2022-12-19T16:00:29.297Z,40.05
2022-12-19T16:03:22.578Z,45.22
2022-12-19T16:05:44.759Z,40.75
2022-12-19T16:08:13.469Z,45.22
2022-12-19T16:10:41.112Z,43.30
2022-12-19T16:13:15.698Z,42.63
2022-12-19T16:15:43.110Z,42.80
2022-12-19T16:18:12.204Z,45.83
2022-12-19T16:20:40.032Z,41.80
2022-12-19T16:23:07.477Z,44.83
2022-12-19T16:25:44.228Z,43.13
2022-12-19T16:28:20.677Z,45.88
2022-12-19T16:30:47.848Z,42.03
2022-12-19T16:33:25.199Z,41.55
2022-12-19T16:36:04.100Z,39.08
2022-12-19T16:38:33.720Z,38.50
2022-12-19T16:41:01.852Z,43.45
2022-12-19T16:43:36.580Z,41.28
2022-12-19T16:46:06.408Z,43.80
2022-12-19T16:48:35.722Z,43.60
2022-12-19T16:51:02.617Z,42.85
2022-12-19T16:53:29.606Z,46.13
2022-12-19T16:55:56.859Z,44.38
2022-12-19T16:58:26.835Z,42.83
2022-12-19T17:00:55.314Z,41.92
2022-12-19T17:03:38.118Z,41.00
2022-12-19T17:06:04.863Z,41.30
2022-12-19T17:08:32.566Z,43.42
2022-12-19T17:10:59.412Z,39.45
2022-12-19T17:13:26.141Z,46.50
2022-12-19T17:15:56.694Z,41.22
2022-12-19T17:18:31.862Z,43.63
2022-12-19T17:20:58.632Z,43.72
2022-12-19T17:23:26.561Z,44.08
2022-12-19T17:25:55.075Z,43.28
2022-12-19T17:28:22.352Z,47.72
2022-12-19T17:30:54.454Z,43.15
2022-12-19T17:33:23.925Z,42.58
2022-12-19T17:35:50.599Z,42.42
2022-12-19T17:38:17.700Z,47.20
2022-12-19T17:40:44.932Z,42.65
2022-12-19T17:43:12.407Z,45.90
2022-12-19T17:45:40.021Z,44.17
2022-12-19T17:48:16.199Z,45.25
2022-12-19T17:50:43.052Z,41.42
2022-12-19T17:53:14.027Z,40.65
2022-12-19T17:55:41.348Z,41.72
2022-12-19T17:58:10.020Z,46.95
2022-12-19T18:00:37.447Z,42.42
2022-12-19T18:03:15.408Z,40.13
2022-12-19T18:05:42.237Z,44.40
2022-12-19T18:08:22.662Z,47.58
2022-12-19T18:10:53.214Z,42.60
2022-12-19T18:13:20.659Z,42.58
2022-12-19T18:15:47.575Z,44.83
2022-12-19T18:18:16.075Z,42.40
2022-12-19T18:20:44.376Z,46.47
2022-12-19T18:23:17.317Z,46.08
2022-12-19T18:25:47.127Z,42.03
2022-12-19T18:28:14.442Z,42.53
2022-12-19T18:30:42.191Z,43.72
2022-12-19T18:33:14.029Z,44.42
2022-12-19T18:35:42.764Z,46.08
2022-12-19T18:38:15.064Z,47.95
2022-12-19T18:40:41.937Z,49.28
2022-12-19T18:43:12.067Z,51.38
2022-12-19T18:45:42.408Z,49.13
2022-12-19T18:48:15.893Z,49.70
2022-12-19T18:50:42.548Z,45.15
2022-12-19T18:53:13.275Z,43.45
2022-12-19T18:55:40.006Z,45.58
2022-12-19T18:58:06.657Z,48.00
2022-12-19T19:00:33.776Z,43.40
2022-12-19T19:03:04.155Z,41.83
2022-12-19T19:05:33.252Z,48.28
2022-12-19T19:08:24.779Z,46.83
2022-12-19T19:11:14.626Z,45.72
2022-12-19T19:13:41.352Z,42.00
2022-12-19T19:16:20.698Z,40.33
2022-12-19T19:18:53.605Z,40.63
2022-12-19T19:21:23.018Z,45.25
2022-12-19T19:23:57.712Z,42.25
2022-12-19T19:26:26.725Z,46.10
2022-12-19T19:28:53.472Z,48.00
2022-12-19T19:31:23.635Z,43.28
2022-12-19T19:33:57.452Z,43.22
2022-12-19T19:36:26.259Z,44.42
2022-12-19T19:38:54.601Z,41.10
2022-12-19T19:41:24.589Z,42.85
2022-12-19T19:43:51.314Z,46.70
2022-12-19T19:46:18.056Z,43.10
2022-12-19T19:48:44.832Z,44.10
2022-12-19T19:51:15.606Z,37.40
2022-12-19T19:53:42.536Z,44.15
2022-12-19T19:56:09.550Z,37.95
2022-12-19T19:58:36.481Z,40.92
2022-12-19T20:01:11.034Z,40.28
2022-12-19T20:03:39.942Z,40.65
2022-12-19T20:06:07.246Z,37.72
2022-12-19T20:08:39.562Z,36.15
2022-12-19T20:11:10.857Z,39.17
2022-12-19T20:13:38.216Z,40.10
2022-12-19T20:16:09.950Z,38.45
2022-12-19T20:18:37.676Z,38.10
2022-12-19T20:21:12.304Z,37.55
2022-12-19T20:23:40.669Z,38.88
2022-12-19T20:26:07.430Z,36.97
2022-12-19T20:28:34.838Z,38.40
2022-12-19T20:31:01.773Z,35.78
2022-12-19T20:33:28.688Z,38.20
2022-12-19T20:36:12.215Z,39.40
2022-12-19T20:38:39.479Z,36.58
2022-12-19T20:41:06.848Z,33.25
2022-12-19T20:43:34.014Z,42.65
2022-12-19T20:46:09.163Z,38.97
2022-12-19T20:48:36.735Z,36.15
2022-12-19T20:51:04.831Z,36.58
2022-12-19T20:53:33.781Z,39.08
2022-12-19T20:56:02.360Z,33.75
2022-12-19T20:58:33.004Z,34.22
2022-12-19T21:01:18.056Z,35.10
2022-12-19T21:03:45.282Z,31.90
2022-12-19T21:06:14.927Z,33.38
2022-12-19T21:08:41.719Z,33.08
2022-12-19T21:11:09.530Z,33.72
2022-12-19T21:13:37.272Z,32.60
2022-12-19T21:16:09.128Z,35.20
2022-12-19T21:18:40.699Z,30.58
2022-12-19T21:21:09.350Z,30.38
2022-12-19T21:23:36.138Z,31.30
2022-12-19T21:26:04.614Z,28.67
2022-12-19T21:28:31.570Z,29.50
2022-12-19T21:31:22.385Z,27.67
2022-12-19T21:33:51.247Z,28.73
2022-12-19T21:36:20.337Z,25.30
2022-12-19T21:38:48.355Z,24.77
2022-12-19T21:41:21.501Z,26.15
2022-12-19T21:43:51.759Z,23.00
2022-12-19T21:46:19.532Z,25.50
2022-12-19T21:48:48.805Z,25.67
2022-12-19T21:51:16.978Z,25.73
2022-12-19T21:53:43.618Z,24.98
2022-12-19T21:56:29.485Z,24.23
2022-12-19T21:59:02.052Z,25.30
2022-12-19T22:01:29.913Z,25.77
2022-12-19T22:04:01.479Z,22.70
2022-12-19T22:06:32.042Z,26.85
2022-12-19T22:09:00.398Z,27.35
2022-12-19T22:11:28.818Z,23.33
2022-12-19T22:13:55.603Z,22.50
2022-12-19T22:16:22.399Z,24.42
2022-12-19T22:18:51.445Z,24.90
2022-12-19T22:21:18.973Z,25.95
2022-12-19T22:23:45.892Z,27.02
2022-12-19T22:26:14.931Z,22.80
2022-12-19T22:28:45.053Z,28.38
2022-12-19T22:31:34.869Z,22.80
2022-12-19T22:34:10.387Z,27.20
2022-12-19T22:36:38.422Z,25.00
2022-12-19T22:39:07.965Z,24.42
2022-12-19T22:41:35.625Z,25.77
2022-12-19T22:44:03.093Z,25.10
2022-12-19T22:46:32.804Z,24.77
2022-12-19T22:49:05.228Z,23.85
2022-12-19T22:51:33.631Z,22.60
2022-12-19T22:54:01.141Z,26.20
2022-12-19T22:56:29.472Z,30.77
2022-12-19T22:59:01.766Z,24.23
2022-12-19T23:01:31.223Z,24.17
2022-12-19T23:03:59.543Z,28.80
2022-12-19T23:06:28.056Z,26.98
2022-12-19T23:08:54.914Z,26.23
2022-12-19T23:11:25.607Z,24.98
2022-12-19T23:13:52.294Z,27.60
2022-12-19T23:16:19.218Z,23.95
2022-12-19T23:18:46.063Z,26.80
2022-12-19T23:21:18.303Z,24.23
2022-12-19T23:23:49.935Z,24.15
2022-12-19T23:26:28.254Z,25.92
2022-12-19T23:29:10.742Z,25.48
2022-12-19T23:31:40.084Z,25.40
2022-12-19T23:34:06.862Z,22.83
2022-12-19T23:39:20.322Z,25.40
2022-12-19T23:41:47.003Z,24.25
2022-12-19T23:44:16.731Z,22.92
2022-12-19T23:46:43.391Z,22.02
2022-12-19T23:49:10.195Z,26.63
2022-12-19T23:51:36.801Z,26.85
2022-12-19T23:54:03.562Z,29.63
2022-12-19T23:56:31.996Z,25.95
2022-12-19T23:58:59.139Z,26.98
